sensor_id;sensor_type;location;lat;lon;timestamp;temperature;humidity
61255;DHT22;47128;47.530;8.584;2022-11-18T00:00:03;9.40;99.90
61255;DHT22;47128;47.530;8.584;2022-11-18T00:02:28;9.40;99.90
61255;DHT22;47128;47.530;8.584;2022-11-18T00:04:55;9.40;99.90
61255;DHT22;47128;47.530;8.584;2022-11-18T00:07:20;9.40;99.90
61255;DHT22;47128;47.530;8.584;2022-11-18T00:09:46;9.40;99.90
61255;DHT22;47128;47.530;8.584;2022-11-18T00:12:11;9.40;99.90
61255;DHT22;47128;47.530;8.584;2022-11-18T00:14:55;9.40;99.90
61255;DHT22;47128;47.530;8.584;2022-11-18T00:17:21;9.40;99.90
61255;DHT22;47128;47.530;8.584;2022-11-18T00:19:46;9.40;99.90
61255;DHT22;47128;47.530;8.584;2022-11-18T00:22:12;9.40;99.90
61255;DHT22;47128;47.530;8.584;2022-11-18T00:24:37;9.40;99.90
61255;DHT22;47128;47.530;8.584;2022-11-18T00:27:03;9.40;99.90
61255;DHT22;47128;47.530;8.584;2022-11-18T00:29:28;9.40;99.90
61255;DHT22;47128;47.530;8.584;2022-11-18T00:31:55;9.40;99.90
61255;DHT22;47128;47.530;8.584;2022-11-18T00:34:21;9.50;99.90
61255;DHT22;47128;47.530;8.584;2022-11-18T00:36:47;9.40;99.90
61255;DHT22;47128;47.530;8.584;2022-11-18T00:39:13;9.50;99.90
61255;DHT22;47128;47.530;8.584;2022-11-18T00:41:40;9.50;99.90
61255;DHT22;47128;47.530;8.584;2022-11-18T00:44:24;9.50;99.90
61255;DHT22;47128;47.530;8.584;2022-11-18T00:46:50;9.50;99.90
61255;DHT22;47128;47.530;8.584;2022-11-18T00:49:15;9.60;99.90
61255;DHT22;47128;47.530;8.584;2022-11-18T00:51:40;9.60;99.90
61255;DHT22;47128;47.530;8.584;2022-11-18T00:54:06;9.70;99.90
61255;DHT22;47128;47.530;8.584;2022-11-18T00:56:31;9.70;99.90
61255;DHT22;47128;47.530;8.584;2022-11-18T00:58:57;9.60;99.90
61255;DHT22;47128;47.530;8.584;2022-11-18T01:01:23;9.60;99.90
61255;DHT22;47128;47.530;8.584;2022-11-18T01:03:49;9.60;99.90
61255;DHT22;47128;47.530;8.584;2022-11-18T01:06:14;9.70;99.90
61255;DHT22;47128;47.530;8.584;2022-11-18T01:08:40;9.70;99.90
61255;DHT22;47128;47.530;8.584;2022-11-18T01:11:05;9.80;99.90
61255;DHT22;47128;47.530;8.584;2022-11-18T01:13:50;9.80;99.90
61255;DHT22;47128;47.530;8.584;2022-11-18T01:16:22;9.90;99.90
61255;DHT22;47128;47.530;8.584;2022-11-18T01:18:48;9.90;99.90
61255;DHT22;47128;47.530;8.584;2022-11-18T01:21:14;9.90;99.90
61255;DHT22;47128;47.530;8.584;2022-11-18T01:23:40;9.90;99.90
61255;DHT22;47128;47.530;8.584;2022-11-18T01:26:08;9.90;99.90
61255;DHT22;47128;47.530;8.584;2022-11-18T01:28:34;9.90;99.90
61255;DHT22;47128;47.530;8.584;2022-11-18T01:31:03;10.00;99.90
61255;DHT22;47128;47.530;8.584;2022-11-18T01:33:28;9.90;99.90
61255;DHT22;47128;47.530;8.584;2022-11-18T01:35:54;9.90;99.90
61255;DHT22;47128;47.530;8.584;2022-11-18T01:38:19;9.90;99.90
61255;DHT22;47128;47.530;8.584;2022-11-18T01:40:45;9.90;99.90
61255;DHT22;47128;47.530;8.584;2022-11-18T01:43:11;9.90;99.90
61255;DHT22;47128;47.530;8.584;2022-11-18T01:45:37;9.90;99.90
61255;DHT22;47128;47.530;8.584;2022-11-18T01:48:08;9.80;99.90
61255;DHT22;47128;47.530;8.584;2022-11-18T01:50:36;9.80;99.90
61255;DHT22;47128;47.530;8.584;2022-11-18T01:53:04;9.80;99.90
61255;DHT22;47128;47.530;8.584;2022-11-18T01:55:32;9.70;99.90
61255;DHT22;47128;47.530;8.584;2022-11-18T01:58:03;9.70;99.90
61255;DHT22;47128;47.530;8.584;2022-11-18T02:00:30;9.70;99.90
61255;DHT22;47128;47.530;8.584;2022-11-18T02:02:55;9.80;99.90
61255;DHT22;47128;47.530;8.584;2022-11-18T02:05:21;9.70;99.90
61255;DHT22;47128;47.530;8.584;2022-11-18T02:07:47;9.70;99.90
61255;DHT22;47128;47.530;8.584;2022-11-18T02:10:17;9.70;99.90
61255;DHT22;47128;47.530;8.584;2022-11-18T02:12:43;9.70;99.90
61255;DHT22;47128;47.530;8.584;2022-11-18T02:15:09;9.80;99.90
61255;DHT22;47128;47.530;8.584;2022-11-18T02:22:38;9.70;99.90
61255;DHT22;47128;47.530;8.584;2022-11-18T02:25:20;9.60;99.90
61255;DHT22;47128;47.530;8.584;2022-11-18T02:27:55;9.60;99.90
61255;DHT22;47128;47.530;8.584;2022-11-18T02:30:22;9.60;99.90
61255;DHT22;47128;47.530;8.584;2022-11-18T02:32:51;9.60;99.90
61255;DHT22;47128;47.530;8.584;2022-11-18T02:35:20;9.60;99.90
61255;DHT22;47128;47.530;8.584;2022-11-18T02:37:48;9.60;99.90
61255;DHT22;47128;47.530;8.584;2022-11-18T02:40:25;9.60;99.90
61255;DHT22;47128;47.530;8.584;2022-11-18T02:42:53;9.60;99.90
61255;DHT22;47128;47.530;8.584;2022-11-18T02:45:22;9.60;99.90
61255;DHT22;47128;47.530;8.584;2022-11-18T02:47:48;9.60;99.90
61255;DHT22;47128;47.530;8.584;2022-11-18T02:50:15;9.50;99.90
61255;DHT22;47128;47.530;8.584;2022-11-18T02:52:42;9.50;99.90
61255;DHT22;47128;47.530;8.584;2022-11-18T02:55:10;9.50;99.90
61255;DHT22;47128;47.530;8.584;2022-11-18T02:57:37;9.50;99.90
61255;DHT22;47128;47.530;8.584;2022-11-18T03:00:04;9.50;99.90
61255;DHT22;47128;47.530;8.584;2022-11-18T03:02:48;9.50;99.90
61255;DHT22;47128;47.530;8.584;2022-11-18T03:05:34;9.50;99.90
61255;DHT22;47128;47.530;8.584;2022-11-18T03:08:02;9.50;99.90
61255;DHT22;47128;47.530;8.584;2022-11-18T03:10:31;9.50;99.90
61255;DHT22;47128;47.530;8.584;2022-11-18T03:13:03;9.50;99.90
61255;DHT22;47128;47.530;8.584;2022-11-18T03:15:43;9.50;99.90
61255;DHT22;47128;47.530;8.584;2022-11-18T03:20:46;9.40;99.90
61255;DHT22;47128;47.530;8.584;2022-11-18T03:25:48;9.40;99.90
61255;DHT22;47128;47.530;8.584;2022-11-18T03:28:21;9.40;99.90
61255;DHT22;47128;47.530;8.584;2022-11-18T03:33:38;9.40;99.90
61255;DHT22;47128;47.530;8.584;2022-11-18T03:36:06;9.40;99.90
61255;DHT22;47128;47.530;8.584;2022-11-18T03:38:37;9.40;99.90
61255;DHT22;47128;47.530;8.584;2022-11-18T03:41:05;9.40;99.90
61255;DHT22;47128;47.530;8.584;2022-11-18T03:43:33;9.40;99.90
61255;DHT22;47128;47.530;8.584;2022-11-18T03:46:06;9.40;99.90
61255;DHT22;47128;47.530;8.584;2022-11-18T03:48:37;9.40;99.90
61255;DHT22;47128;47.530;8.584;2022-11-18T03:51:07;9.40;99.90
61255;DHT22;47128;47.530;8.584;2022-11-18T03:53:34;9.40;99.90
61255;DHT22;47128;47.530;8.584;2022-11-18T03:56:05;9.30;99.90
61255;DHT22;47128;47.530;8.584;2022-11-18T04:01:32;9.30;99.90
61255;DHT22;47128;47.530;8.584;2022-11-18T04:04:00;9.30;99.90
61255;DHT22;47128;47.530;8.584;2022-11-18T04:06:34;9.30;99.90
61255;DHT22;47128;47.530;8.584;2022-11-18T04:09:02;9.30;99.90
61255;DHT22;47128;47.530;8.584;2022-11-18T04:11:34;9.20;99.90
61255;DHT22;47128;47.530;8.584;2022-11-18T04:14:19;9.10;99.90
61255;DHT22;47128;47.530;8.584;2022-11-18T04:16:47;9.00;99.90
61255;DHT22;47128;47.530;8.584;2022-11-18T04:19:14;9.00;99.90
61255;DHT22;47128;47.530;8.584;2022-11-18T04:21:39;9.00;99.90
61255;DHT22;47128;47.530;8.584;2022-11-18T04:24:05;9.00;99.90
61255;DHT22;47128;47.530;8.584;2022-11-18T04:26:30;9.00;99.90
61255;DHT22;47128;47.530;8.584;2022-11-18T04:28:56;9.00;99.90
61255;DHT22;47128;47.530;8.584;2022-11-18T04:31:21;9.00;99.90
61255;DHT22;47128;47.530;8.584;2022-11-18T04:33:47;8.90;99.90
61255;DHT22;47128;47.530;8.584;2022-11-18T04:36:12;8.90;99.90
61255;DHT22;47128;47.530;8.584;2022-11-18T04:38:37;8.80;99.90
61255;DHT22;47128;47.530;8.584;2022-11-18T04:41:03;8.80;99.90
61255;DHT22;47128;47.530;8.584;2022-11-18T04:43:28;8.80;99.90
61255;DHT22;47128;47.530;8.584;2022-11-18T04:45:54;8.90;99.90
61255;DHT22;47128;47.530;8.584;2022-11-18T04:48:19;8.90;99.90
61255;DHT22;47128;47.530;8.584;2022-11-18T04:50:45;8.90;99.90
61255;DHT22;47128;47.530;8.584;2022-11-18T04:53:10;8.80;99.90
61255;DHT22;47128;47.530;8.584;2022-11-18T04:55:36;8.80;99.90
61255;DHT22;47128;47.530;8.584;2022-11-18T04:58:01;8.80;99.90
61255;DHT22;47128;47.530;8.584;2022-11-18T05:00:27;8.70;99.90
61255;DHT22;47128;47.530;8.584;2022-11-18T05:02:52;8.80;99.90
61255;DHT22;47128;47.530;8.584;2022-11-18T05:05:18;8.80;99.90
61255;DHT22;47128;47.530;8.584;2022-11-18T05:07:43;8.70;99.90
61255;DHT22;47128;47.530;8.584;2022-11-18T05:10:09;8.80;99.90
61255;DHT22;47128;47.530;8.584;2022-11-18T05:12:34;8.90;99.90
61255;DHT22;47128;47.530;8.584;2022-11-18T05:15:17;9.00;99.90
61255;DHT22;47128;47.530;8.584;2022-11-18T05:17:43;9.00;99.90
61255;DHT22;47128;47.530;8.584;2022-11-18T05:20:09;9.00;99.90
61255;DHT22;47128;47.530;8.584;2022-11-18T05:22:34;8.90;99.90
61255;DHT22;47128;47.530;8.584;2022-11-18T05:25:00;8.90;99.90
61255;DHT22;47128;47.530;8.584;2022-11-18T05:27:26;8.90;99.90
61255;DHT22;47128;47.530;8.584;2022-11-18T05:29:51;8.80;99.90
61255;DHT22;47128;47.530;8.584;2022-11-18T05:32:18;8.80;99.90
61255;DHT22;47128;47.530;8.584;2022-11-18T05:34:44;8.80;99.90
61255;DHT22;47128;47.530;8.584;2022-11-18T05:37:09;8.80;99.90
61255;DHT22;47128;47.530;8.584;2022-11-18T05:39:35;8.80;99.90
61255;DHT22;47128;47.530;8.584;2022-11-18T05:42:00;8.90;99.90
61255;DHT22;47128;47.530;8.584;2022-11-18T05:44:45;8.90;99.90
61255;DHT22;47128;47.530;8.584;2022-11-18T05:47:10;8.90;99.90
61255;DHT22;47128;47.530;8.584;2022-11-18T05:49:36;8.80;99.90
61255;DHT22;47128;47.530;8.584;2022-11-18T05:52:01;8.90;99.90
61255;DHT22;47128;47.530;8.584;2022-11-18T05:54:27;8.80;99.90
61255;DHT22;47128;47.530;8.584;2022-11-18T05:56:52;8.80;99.90
61255;DHT22;47128;47.530;8.584;2022-11-18T05:59:18;8.80;99.90
61255;DHT22;47128;47.530;8.584;2022-11-18T06:01:45;8.80;99.90
61255;DHT22;47128;47.530;8.584;2022-11-18T06:04:16;8.90;99.90
61255;DHT22;47128;47.530;8.584;2022-11-18T06:06:43;8.90;99.90
61255;DHT22;47128;47.530;8.584;2022-11-18T06:09:10;8.90;99.90
61255;DHT22;47128;47.530;8.584;2022-11-18T06:11:38;8.90;99.90
61255;DHT22;47128;47.530;8.584;2022-11-18T06:14:06;8.80;99.90
61255;DHT22;47128;47.530;8.584;2022-11-18T06:16:32;8.80;99.90
61255;DHT22;47128;47.530;8.584;2022-11-18T06:18:59;8.80;99.90
61255;DHT22;47128;47.530;8.584;2022-11-18T06:21:25;8.80;99.90
61255;DHT22;47128;47.530;8.584;2022-11-18T06:23:51;8.70;99.90
61255;DHT22;47128;47.530;8.584;2022-11-18T06:26:16;8.60;99.90
61255;DHT22;47128;47.530;8.584;2022-11-18T06:28:45;8.60;99.90
61255;DHT22;47128;47.530;8.584;2022-11-18T06:31:12;8.60;99.90
61255;DHT22;47128;47.530;8.584;2022-11-18T06:33:38;8.60;99.90
61255;DHT22;47128;47.530;8.584;2022-11-18T06:36:03;8.60;99.90
61255;DHT22;47128;47.530;8.584;2022-11-18T06:38:29;8.60;99.90
61255;DHT22;47128;47.530;8.584;2022-11-18T06:40:58;8.70;99.90
61255;DHT22;47128;47.530;8.584;2022-11-18T06:43:24;8.60;99.90
61255;DHT22;47128;47.530;8.584;2022-11-18T06:49:11;8.50;99.90
61255;DHT22;47128;47.530;8.584;2022-11-18T06:51:36;8.50;99.90
61255;DHT22;47128;47.530;8.584;2022-11-18T06:54:03;8.60;99.90
61255;DHT22;47128;47.530;8.584;2022-11-18T06:56:29;8.60;99.90
61255;DHT22;47128;47.530;8.584;2022-11-18T06:58:55;8.60;99.90
61255;DHT22;47128;47.530;8.584;2022-11-18T07:01:25;8.60;99.90
61255;DHT22;47128;47.530;8.584;2022-11-18T07:03:51;8.60;99.90
61255;DHT22;47128;47.530;8.584;2022-11-18T07:06:18;8.70;99.90
61255;DHT22;47128;47.530;8.584;2022-11-18T07:08:58;8.60;99.90
61255;DHT22;47128;47.530;8.584;2022-11-18T07:11:24;8.70;99.90
61255;DHT22;47128;47.530;8.584;2022-11-18T07:13:50;8.70;99.90
61255;DHT22;47128;47.530;8.584;2022-11-18T07:16:21;8.70;99.90
61255;DHT22;47128;47.530;8.584;2022-11-18T07:18:47;8.70;99.90
61255;DHT22;47128;47.530;8.584;2022-11-18T07:21:20;8.70;99.90
61255;DHT22;47128;47.530;8.584;2022-11-18T07:23:49;8.70;99.90
61255;DHT22;47128;47.530;8.584;2022-11-18T07:29:18;8.70;99.90
61255;DHT22;47128;47.530;8.584;2022-11-18T07:31:44;8.60;99.90
61255;DHT22;47128;47.530;8.584;2022-11-18T07:34:10;8.70;99.90
61255;DHT22;47128;47.530;8.584;2022-11-18T07:36:36;8.70;99.90
61255;DHT22;47128;47.530;8.584;2022-11-18T07:39:04;8.80;99.90
61255;DHT22;47128;47.530;8.584;2022-11-18T07:41:32;8.80;99.90
61255;DHT22;47128;47.530;8.584;2022-11-18T07:43:58;8.80;99.90
61255;DHT22;47128;47.530;8.584;2022-11-18T07:46:26;8.80;99.90
61255;DHT22;47128;47.530;8.584;2022-11-18T07:48:55;8.80;99.90
61255;DHT22;47128;47.530;8.584;2022-11-18T07:51:24;8.80;99.90
61255;DHT22;47128;47.530;8.584;2022-11-18T07:53:49;8.80;99.90
61255;DHT22;47128;47.530;8.584;2022-11-18T07:56:15;8.80;99.90
61255;DHT22;47128;47.530;8.584;2022-11-18T07:58:41;8.90;99.90
61255;DHT22;47128;47.530;8.584;2022-11-18T08:03:40;9.10;99.90
61255;DHT22;47128;47.530;8.584;2022-11-18T08:06:06;9.10;99.90
61255;DHT22;47128;47.530;8.584;2022-11-18T08:08:32;9.10;99.90
61255;DHT22;47128;47.530;8.584;2022-11-18T08:10:58;9.20;99.90
61255;DHT22;47128;47.530;8.584;2022-11-18T08:13:24;9.20;99.90
61255;DHT22;47128;47.530;8.584;2022-11-18T08:15:51;9.40;99.90
61255;DHT22;47128;47.530;8.584;2022-11-18T08:18:18;9.30;99.90
61255;DHT22;47128;47.530;8.584;2022-11-18T08:20:43;9.30;99.90
61255;DHT22;47128;47.530;8.584;2022-11-18T08:23:10;9.40;99.90
61255;DHT22;47128;47.530;8.584;2022-11-18T08:25:35;9.40;99.90
61255;DHT22;47128;47.530;8.584;2022-11-18T08:28:01;9.50;99.90
61255;DHT22;47128;47.530;8.584;2022-11-18T08:30:29;9.60;99.90
61255;DHT22;47128;47.530;8.584;2022-11-18T08:32:55;9.70;99.90
61255;DHT22;47128;47.530;8.584;2022-11-18T08:35:21;9.90;99.90
61255;DHT22;47128;47.530;8.584;2022-11-18T08:37:49;10.10;99.90
61255;DHT22;47128;47.530;8.584;2022-11-18T08:40:14;10.10;99.90
61255;DHT22;47128;47.530;8.584;2022-11-18T08:42:41;10.10;99.90
61255;DHT22;47128;47.530;8.584;2022-11-18T08:45:07;10.10;99.90
61255;DHT22;47128;47.530;8.584;2022-11-18T08:47:33;10.10;99.90
61255;DHT22;47128;47.530;8.584;2022-11-18T08:49:59;10.20;99.90
61255;DHT22;47128;47.530;8.584;2022-11-18T08:52:25;10.30;99.90
61255;DHT22;47128;47.530;8.584;2022-11-18T08:54:50;10.20;99.90
61255;DHT22;47128;47.530;8.584;2022-11-18T08:57:17;10.30;99.90
61255;DHT22;47128;47.530;8.584;2022-11-18T08:59:46;10.30;99.90
61255;DHT22;47128;47.530;8.584;2022-11-18T09:02:12;10.30;99.90
61255;DHT22;47128;47.530;8.584;2022-11-18T09:04:41;10.40;99.90
61255;DHT22;47128;47.530;8.584;2022-11-18T09:07:08;10.50;99.90
61255;DHT22;47128;47.530;8.584;2022-11-18T09:09:34;10.60;99.90
61255;DHT22;47128;47.530;8.584;2022-11-18T09:12:07;10.70;99.90
61255;DHT22;47128;47.530;8.584;2022-11-18T09:14:35;10.80;99.90
61255;DHT22;47128;47.530;8.584;2022-11-18T09:17:03;10.80;99.90
61255;DHT22;47128;47.530;8.584;2022-11-18T09:19:28;11.00;99.90
61255;DHT22;47128;47.530;8.584;2022-11-18T09:21:54;11.00;99.90
61255;DHT22;47128;47.530;8.584;2022-11-18T09:24:19;11.10;99.90
61255;DHT22;47128;47.530;8.584;2022-11-18T09:26:46;11.10;99.90
61255;DHT22;47128;47.530;8.584;2022-11-18T09:29:14;11.10;99.90
61255;DHT22;47128;47.530;8.584;2022-11-18T09:31:39;10.90;99.90
61255;DHT22;47128;47.530;8.584;2022-11-18T09:34:05;10.80;99.90
61255;DHT22;47128;47.530;8.584;2022-11-18T09:36:32;10.90;99.90
61255;DHT22;47128;47.530;8.584;2022-11-18T09:38:58;10.90;99.90
61255;DHT22;47128;47.530;8.584;2022-11-18T09:43:58;11.00;99.90
61255;DHT22;47128;47.530;8.584;2022-11-18T09:49:13;11.10;99.90
61255;DHT22;47128;47.530;8.584;2022-11-18T09:51:45;10.80;99.90
61255;DHT22;47128;47.530;8.584;2022-11-18T09:56:41;10.40;99.90
61255;DHT22;47128;47.530;8.584;2022-11-18T09:59:09;10.30;99.90
61255;DHT22;47128;47.530;8.584;2022-11-18T10:01:37;10.40;99.90
61255;DHT22;47128;47.530;8.584;2022-11-18T10:04:03;10.40;99.90
61255;DHT22;47128;47.530;8.584;2022-11-18T10:06:30;10.40;99.90
61255;DHT22;47128;47.530;8.584;2022-11-18T10:09:02;10.40;99.90
61255;DHT22;47128;47.530;8.584;2022-11-18T10:14:37;10.30;99.90
61255;DHT22;47128;47.530;8.584;2022-11-18T10:22:13;10.20;99.90
61255;DHT22;47128;47.530;8.584;2022-11-18T10:24:56;10.20;99.90
61255;DHT22;47128;47.530;8.584;2022-11-18T10:27:31;10.30;99.90
61255;DHT22;47128;47.530;8.584;2022-11-18T10:30:00;10.30;99.90
61255;DHT22;47128;47.530;8.584;2022-11-18T10:32:25;10.40;99.90
61255;DHT22;47128;47.530;8.584;2022-11-18T10:34:56;10.50;99.90
61255;DHT22;47128;47.530;8.584;2022-11-18T10:37:33;10.70;99.90
61255;DHT22;47128;47.530;8.584;2022-11-18T10:40:02;10.60;99.90
61255;DHT22;47128;47.530;8.584;2022-11-18T10:42:33;10.70;99.90
61255;DHT22;47128;47.530;8.584;2022-11-18T10:50:33;10.50;99.90
61255;DHT22;47128;47.530;8.584;2022-11-18T10:52:59;10.50;99.90
61255;DHT22;47128;47.530;8.584;2022-11-18T10:55:25;10.50;99.90
61255;DHT22;47128;47.530;8.584;2022-11-18T10:58:12;10.70;99.90
61255;DHT22;47128;47.530;8.584;2022-11-18T11:00:42;10.90;99.90
61255;DHT22;47128;47.530;8.584;2022-11-18T11:03:54;10.90;99.90
61255;DHT22;47128;47.530;8.584;2022-11-18T11:08:47;10.50;99.90
61255;DHT22;47128;47.530;8.584;2022-11-18T11:11:17;10.40;99.90
61255;DHT22;47128;47.530;8.584;2022-11-18T11:13:51;10.30;99.90
61255;DHT22;47128;47.530;8.584;2022-11-18T11:16:16;10.30;99.90
61255;DHT22;47128;47.530;8.584;2022-11-18T11:18:44;10.30;99.90
61255;DHT22;47128;47.530;8.584;2022-11-18T11:21:16;10.20;99.90
61255;DHT22;47128;47.530;8.584;2022-11-18T11:23:42;10.00;99.90
61255;DHT22;47128;47.530;8.584;2022-11-18T11:56:17;9.80;99.90
61255;DHT22;47128;47.530;8.584;2022-11-18T12:06:45;10.00;99.90
61255;DHT22;47128;47.530;8.584;2022-11-18T12:12:20;10.10;99.90
61255;DHT22;47128;47.530;8.584;2022-11-18T12:15:07;10.10;99.90
61255;DHT22;47128;47.530;8.584;2022-11-18T12:17:39;10.10;99.90
61255;DHT22;47128;47.530;8.584;2022-11-18T12:23:12;10.10;99.90
61255;DHT22;47128;47.530;8.584;2022-11-18T12:25:43;10.10;99.90
61255;DHT22;47128;47.530;8.584;2022-11-18T12:34:03;10.00;99.90
61255;DHT22;47128;47.530;8.584;2022-11-18T12:36:33;9.90;99.90
61255;DHT22;47128;47.530;8.584;2022-11-18T12:39:46;10.10;99.90
61255;DHT22;47128;47.530;8.584;2022-11-18T12:44:29;13.70;99.90
61255;DHT22;47128;47.530;8.584;2022-11-18T12:46:57;13.90;98.60
61255;DHT22;47128;47.530;8.584;2022-11-18T12:51:52;12.20;99.90
61255;DHT22;47128;47.530;8.584;2022-11-18T12:56:50;11.70;99.90
61255;DHT22;47128;47.530;8.584;2022-11-18T12:59:25;11.50;99.90
61255;DHT22;47128;47.530;8.584;2022-11-18T13:02:00;11.40;99.90
61255;DHT22;47128;47.530;8.584;2022-11-18T13:04:26;11.20;99.90
61255;DHT22;47128;47.530;8.584;2022-11-18T13:06:51;11.00;99.90
61255;DHT22;47128;47.530;8.584;2022-11-18T13:09:22;10.90;99.90
61255;DHT22;47128;47.530;8.584;2022-11-18T13:11:56;10.70;99.90
61255;DHT22;47128;47.530;8.584;2022-11-18T13:14:31;10.50;99.90
61255;DHT22;47128;47.530;8.584;2022-11-18T13:22:50;10.00;99.90
61255;DHT22;47128;47.530;8.584;2022-11-18T13:25:35;9.90;99.90
61255;DHT22;47128;47.530;8.584;2022-11-18T13:28:13;9.70;99.90
61255;DHT22;47128;47.530;8.584;2022-11-18T13:30:57;9.60;99.90
61255;DHT22;47128;47.530;8.584;2022-11-18T13:33:24;9.60;99.90
61255;DHT22;47128;47.530;8.584;2022-11-18T13:35:49;9.60;99.90
61255;DHT22;47128;47.530;8.584;2022-11-18T13:38:24;9.60;99.90
61255;DHT22;47128;47.530;8.584;2022-11-18T13:40:50;9.60;99.90
61255;DHT22;47128;47.530;8.584;2022-11-18T13:43:32;9.40;99.90
61255;DHT22;47128;47.530;8.584;2022-11-18T13:45:58;9.30;99.90
61255;DHT22;47128;47.530;8.584;2022-11-18T13:48:25;9.30;99.90
61255;DHT22;47128;47.530;8.584;2022-11-18T13:50:52;9.30;99.90
61255;DHT22;47128;47.530;8.584;2022-11-18T13:56:06;9.20;99.90
61255;DHT22;47128;47.530;8.584;2022-11-18T13:58:44;9.20;99.90
61255;DHT22;47128;47.530;8.584;2022-11-18T14:01:17;9.20;99.90
61255;DHT22;47128;47.530;8.584;2022-11-18T14:06:08;9.20;99.90
61255;DHT22;47128;47.530;8.584;2022-11-18T14:08:36;9.40;99.90
61255;DHT22;47128;47.530;8.584;2022-11-18T14:11:02;9.60;99.90
61255;DHT22;47128;47.530;8.584;2022-11-18T14:13:32;9.80;99.90
61255;DHT22;47128;47.530;8.584;2022-11-18T14:18:48;10.10;99.90
61255;DHT22;47128;47.530;8.584;2022-11-18T14:21:29;10.10;99.90
61255;DHT22;47128;47.530;8.584;2022-11-18T14:23:58;10.10;99.90
61255;DHT22;47128;47.530;8.584;2022-11-18T14:26:31;10.10;99.90
61255;DHT22;47128;47.530;8.584;2022-11-18T14:29:00;10.00;99.90
61255;DHT22;47128;47.530;8.584;2022-11-18T14:31:27;10.00;99.90
61255;DHT22;47128;47.530;8.584;2022-11-18T14:36:41;9.80;99.90
61255;DHT22;47128;47.530;8.584;2022-11-18T14:39:27;9.80;99.90
61255;DHT22;47128;47.530;8.584;2022-11-18T14:41:59;9.80;99.90
61255;DHT22;47128;47.530;8.584;2022-11-18T14:44:41;9.80;99.90
61255;DHT22;47128;47.530;8.584;2022-11-18T14:47:26;9.80;99.90
61255;DHT22;47128;47.530;8.584;2022-11-18T14:49:55;9.80;99.90
61255;DHT22;47128;47.530;8.584;2022-11-18T14:52:21;9.60;99.90
61255;DHT22;47128;47.530;8.584;2022-11-18T14:54:46;9.50;99.90
61255;DHT22;47128;47.530;8.584;2022-11-18T14:57:13;9.50;99.90
61255;DHT22;47128;47.530;8.584;2022-11-18T14:59:39;9.50;99.90
61255;DHT22;47128;47.530;8.584;2022-11-18T15:02:05;9.50;99.90
61255;DHT22;47128;47.530;8.584;2022-11-18T15:04:34;9.50;99.90
61255;DHT22;47128;47.530;8.584;2022-11-18T15:06:59;9.50;99.90
61255;DHT22;47128;47.530;8.584;2022-11-18T15:09:25;9.50;99.90
61255;DHT22;47128;47.530;8.584;2022-11-18T15:11:50;9.50;99.90
61255;DHT22;47128;47.530;8.584;2022-11-18T15:14:16;9.60;99.90
61255;DHT22;47128;47.530;8.584;2022-11-18T15:16:41;9.60;99.90
61255;DHT22;47128;47.530;8.584;2022-11-18T15:21:35;9.50;99.90
61255;DHT22;47128;47.530;8.584;2022-11-18T15:24:05;9.40;99.90
61255;DHT22;47128;47.530;8.584;2022-11-18T15:26:34;9.30;99.90
61255;DHT22;47128;47.530;8.584;2022-11-18T15:29:01;9.30;99.90
61255;DHT22;47128;47.530;8.584;2022-11-18T15:31:28;9.20;99.90
61255;DHT22;47128;47.530;8.584;2022-11-18T15:33:54;9.10;99.90
61255;DHT22;47128;47.530;8.584;2022-11-18T15:36:24;9.00;99.90
61255;DHT22;47128;47.530;8.584;2022-11-18T15:38:51;8.80;99.90
61255;DHT22;47128;47.530;8.584;2022-11-18T15:41:24;8.80;99.90
61255;DHT22;47128;47.530;8.584;2022-11-18T15:43:51;8.70;99.90
61255;DHT22;47128;47.530;8.584;2022-11-18T15:46:18;8.80;99.90
61255;DHT22;47128;47.530;8.584;2022-11-18T15:48:44;8.70;99.90
61255;DHT22;47128;47.530;8.584;2022-11-18T15:51:09;8.40;99.90
61255;DHT22;47128;47.530;8.584;2022-11-18T15:53:35;8.60;99.90
61255;DHT22;47128;47.530;8.584;2022-11-18T15:58:38;8.40;99.90
61255;DHT22;47128;47.530;8.584;2022-11-18T16:01:04;8.40;99.90
61255;DHT22;47128;47.530;8.584;2022-11-18T16:03:29;8.30;99.90
61255;DHT22;47128;47.530;8.584;2022-11-18T16:05:55;8.30;99.90
61255;DHT22;47128;47.530;8.584;2022-11-18T16:08:20;8.30;99.90
61255;DHT22;47128;47.530;8.584;2022-11-18T16:10:46;8.30;99.90
61255;DHT22;47128;47.530;8.584;2022-11-18T16:13:30;8.10;99.90
61255;DHT22;47128;47.530;8.584;2022-11-18T16:15:55;8.10;99.90
61255;DHT22;47128;47.530;8.584;2022-11-18T16:18:21;8.10;99.90
61255;DHT22;47128;47.530;8.584;2022-11-18T16:20:46;8.00;99.90
61255;DHT22;47128;47.530;8.584;2022-11-18T16:23:12;8.00;99.90
61255;DHT22;47128;47.530;8.584;2022-11-18T16:25:44;8.00;99.90
61255;DHT22;47128;47.530;8.584;2022-11-18T16:28:10;7.90;99.90
61255;DHT22;47128;47.530;8.584;2022-11-18T16:30:36;7.90;99.90
61255;DHT22;47128;47.530;8.584;2022-11-18T16:33:20;7.90;99.90
61255;DHT22;47128;47.530;8.584;2022-11-18T16:35:46;7.80;99.90
61255;DHT22;47128;47.530;8.584;2022-11-18T16:38:12;7.80;99.90
61255;DHT22;47128;47.530;8.584;2022-11-18T16:40:37;7.80;99.90
61255;DHT22;47128;47.530;8.584;2022-11-18T16:43:03;7.70;99.90
61255;DHT22;47128;47.530;8.584;2022-11-18T16:45:28;7.70;99.90
61255;DHT22;47128;47.530;8.584;2022-11-18T16:47:54;7.80;99.90
61255;DHT22;47128;47.530;8.584;2022-11-18T16:52:46;7.70;99.90
61255;DHT22;47128;47.530;8.584;2022-11-18T16:55:12;7.70;99.90
61255;DHT22;47128;47.530;8.584;2022-11-18T16:57:37;7.60;99.90
61255;DHT22;47128;47.530;8.584;2022-11-18T17:00:03;7.60;99.90
61255;DHT22;47128;47.530;8.584;2022-11-18T17:02:29;7.50;99.90
61255;DHT22;47128;47.530;8.584;2022-11-18T17:04:54;7.30;99.90
61255;DHT22;47128;47.530;8.584;2022-11-18T17:07:20;7.40;99.90
61255;DHT22;47128;47.530;8.584;2022-11-18T17:09:46;7.40;99.90
61255;DHT22;47128;47.530;8.584;2022-11-18T17:12:11;7.40;99.90
61255;DHT22;47128;47.530;8.584;2022-11-18T17:14:37;7.40;99.90
61255;DHT22;47128;47.530;8.584;2022-11-18T17:17:04;7.50;99.90
61255;DHT22;47128;47.530;8.584;2022-11-18T17:19:32;7.50;99.90
61255;DHT22;47128;47.530;8.584;2022-11-18T17:21:58;7.50;99.90
61255;DHT22;47128;47.530;8.584;2022-11-18T17:24:23;7.50;99.90
61255;DHT22;47128;47.530;8.584;2022-11-18T17:26:49;7.50;99.90
61255;DHT22;47128;47.530;8.584;2022-11-18T17:29:16;7.60;99.90
61255;DHT22;47128;47.530;8.584;2022-11-18T17:31:41;7.50;99.90
61255;DHT22;47128;47.530;8.584;2022-11-18T17:34:11;7.60;99.90
61255;DHT22;47128;47.530;8.584;2022-11-18T17:36:37;7.60;99.90
61255;DHT22;47128;47.530;8.584;2022-11-18T17:39:02;7.50;99.90
61255;DHT22;47128;47.530;8.584;2022-11-18T17:41:28;7.50;99.90
61255;DHT22;47128;47.530;8.584;2022-11-18T17:44:13;7.50;99.90
61255;DHT22;47128;47.530;8.584;2022-11-18T17:46:39;7.40;99.90
61255;DHT22;47128;47.530;8.584;2022-11-18T17:49:14;7.40;99.90
61255;DHT22;47128;47.530;8.584;2022-11-18T17:51:40;7.40;99.90
61255;DHT22;47128;47.530;8.584;2022-11-18T17:54:06;7.30;99.90
61255;DHT22;47128;47.530;8.584;2022-11-18T17:56:32;7.30;99.90
61255;DHT22;47128;47.530;8.584;2022-11-18T17:58:57;7.20;99.90